createdAt,value
2018-07-14T00:01:38.344Z,7.90
2018-07-14T00:04:07.259Z,9.10
2018-07-14T00:06:36.269Z,7.87
2018-07-14T00:09:06.245Z,8.40
2018-07-14T00:11:35.182Z,7.93
2018-07-14T00:14:04.124Z,8.20
2018-07-14T00:16:33.016Z,8.23
2018-07-14T00:19:01.930Z,8.43
2018-07-14T00:21:30.841Z,8.30
2018-07-14T00:23:59.760Z,8.47
2018-07-14T00:26:28.666Z,9.20
2018-07-14T00:28:57.594Z,7.83
2018-07-14T00:31:26.515Z,9.53
2018-07-14T00:33:55.419Z,11.63
2018-07-14T00:36:24.313Z,9.90
2018-07-14T00:38:53.339Z,8.57
2018-07-14T00:41:22.232Z,8.90
2018-07-14T00:43:51.144Z,8.63
2018-07-14T00:46:20.053Z,10.53
2018-07-14T00:48:48.965Z,10.07
2018-07-14T00:51:17.894Z,9.27
2018-07-14T00:53:46.808Z,11.70
2018-07-14T00:56:15.728Z,10.87
2018-07-14T00:58:44.640Z,11.63
2018-07-14T01:01:13.520Z,11.63
2018-07-14T01:03:42.428Z,10.93
2018-07-14T01:06:11.336Z,8.83
2018-07-14T01:08:40.254Z,11.17
2018-07-14T01:11:09.187Z,15.60
2018-07-14T01:13:38.072Z,10.77
2018-07-14T01:16:06.978Z,15.07
2018-07-14T01:18:35.881Z,13.23
2018-07-14T01:21:04.779Z,12.00
2018-07-14T01:23:33.684Z,14.27
2018-07-14T01:26:02.607Z,11.70
2018-07-14T01:28:31.559Z,11.77
2018-07-14T01:31:00.494Z,12.93
2018-07-14T01:33:29.408Z,13.40
2018-07-14T01:35:58.321Z,14.83
2018-07-14T01:38:27.242Z,15.50
2018-07-14T01:40:56.160Z,14.03
2018-07-14T01:43:25.074Z,15.47
2018-07-14T01:45:54.002Z,15.93
2018-07-14T01:48:22.932Z,14.93
2018-07-14T01:50:51.943Z,15.63
2018-07-14T01:53:20.859Z,17.73
2018-07-14T01:55:49.796Z,17.00
2018-07-14T01:58:18.788Z,16.83
2018-07-14T02:00:47.750Z,16.00
2018-07-14T02:03:16.664Z,17.67
2018-07-14T02:05:45.598Z,16.03
2018-07-14T02:08:14.527Z,16.43
2018-07-14T02:10:43.475Z,16.63
2018-07-14T02:13:12.371Z,17.97
2018-07-14T02:15:41.313Z,15.40
2018-07-14T02:18:10.250Z,17.07
2018-07-14T02:20:39.167Z,15.93
2018-07-14T02:23:08.111Z,18.23
2018-07-14T02:25:37.056Z,15.70
2018-07-14T02:28:06.081Z,17.23
2018-07-14T02:30:35.021Z,17.83
2018-07-14T02:33:04.073Z,17.20
2018-07-14T02:35:33.003Z,16.63
2018-07-14T02:38:01.912Z,20.17
2018-07-14T02:40:30.824Z,19.53
2018-07-14T02:42:59.760Z,20.13
2018-07-14T02:45:28.696Z,17.17
2018-07-14T02:47:57.622Z,19.37
2018-07-14T02:50:26.557Z,17.13
2018-07-14T02:52:55.488Z,19.63
2018-07-14T02:55:24.437Z,18.53
2018-07-14T02:57:53.334Z,18.00
2018-07-14T03:00:22.252Z,19.70
2018-07-14T03:02:51.215Z,18.30
2018-07-14T03:05:20.112Z,21.93
2018-07-14T03:07:49.050Z,17.90
2018-07-14T03:10:17.989Z,18.40
2018-07-14T03:12:46.963Z,20.43
2018-07-14T03:15:15.930Z,19.73
2018-07-14T03:17:44.960Z,18.37
2018-07-14T03:20:13.864Z,21.00
2018-07-14T03:22:42.792Z,19.13
2018-07-14T03:25:11.735Z,24.47
2018-07-14T03:27:40.676Z,21.63
2018-07-14T03:30:09.623Z,19.07
2018-07-14T03:32:38.652Z,20.27
2018-07-14T03:35:07.612Z,17.07
2018-07-14T03:37:36.555Z,21.43
2018-07-14T03:40:05.806Z,20.47
2018-07-14T03:42:34.717Z,19.90
2018-07-14T03:45:03.893Z,22.67
2018-07-14T03:47:32.859Z,18.80
2018-07-14T03:50:01.778Z,18.00
2018-07-14T03:52:30.725Z,24.37
2018-07-14T03:54:59.664Z,17.10
2018-07-14T03:57:28.594Z,18.70
2018-07-14T03:59:57.517Z,18.87
2018-07-14T04:02:26.439Z,20.03
2018-07-14T04:04:55.372Z,20.10
2018-07-14T04:07:24.420Z,23.03
2018-07-14T04:09:53.422Z,20.80
2018-07-14T04:12:22.381Z,21.93
2018-07-14T04:14:51.474Z,19.90
2018-07-14T04:17:20.300Z,19.23
2018-07-14T04:19:49.207Z,19.97
2018-07-14T04:22:18.138Z,18.37
2018-07-14T04:24:47.047Z,20.43
2018-07-14T04:27:16.058Z,21.63
2018-07-14T04:29:44.997Z,18.53
2018-07-14T04:32:13.952Z,18.00
2018-07-14T04:34:42.877Z,20.50
2018-07-14T04:37:11.852Z,24.50
2018-07-14T04:39:40.829Z,21.63
2018-07-14T04:42:09.748Z,18.73
2018-07-14T04:44:38.666Z,20.13
2018-07-14T04:47:07.629Z,25.40
2018-07-14T04:49:36.549Z,20.03
2018-07-14T04:52:05.559Z,19.83
2018-07-14T04:54:34.473Z,20.83
2018-07-14T04:57:08.213Z,19.87
2018-07-14T04:59:37.124Z,18.73
2018-07-14T05:02:06.210Z,22.97
2018-07-14T05:04:35.142Z,21.13
2018-07-14T05:07:04.112Z,19.23
2018-07-14T05:09:33.146Z,18.53
2018-07-14T05:12:02.199Z,21.10
2018-07-14T05:14:31.133Z,19.40
2018-07-14T05:17:00.052Z,17.43
2018-07-14T05:19:28.998Z,19.63
2018-07-14T05:21:58.005Z,18.23
2018-07-14T05:24:26.933Z,18.63
2018-07-14T05:26:55.887Z,19.97
2018-07-14T05:29:24.811Z,17.57
2018-07-14T05:31:53.730Z,20.47
2018-07-14T05:34:22.658Z,21.27
2018-07-14T05:36:51.595Z,20.20
2018-07-14T05:39:20.879Z,22.17
2018-07-14T05:41:49.808Z,15.87
2018-07-14T05:44:18.731Z,21.70
2018-07-14T05:46:47.686Z,16.50
2018-07-14T05:49:16.642Z,18.57
2018-07-14T05:51:45.624Z,16.60
2018-07-14T05:54:14.688Z,16.00
2018-07-14T05:56:43.711Z,17.87
2018-07-14T05:59:12.628Z,16.77
2018-07-14T06:01:41.938Z,19.73
2018-07-14T06:04:11.103Z,17.20
2018-07-14T06:06:40.200Z,17.13
2018-07-14T06:09:09.202Z,16.20
2018-07-14T06:11:38.124Z,19.47
2018-07-14T06:14:07.096Z,15.53
2018-07-14T06:16:36.032Z,15.53
2018-07-14T06:19:05.004Z,15.03
2018-07-14T06:21:33.962Z,16.97
2018-07-14T06:24:02.979Z,16.20
2018-07-14T06:26:31.940Z,16.77
2018-07-14T06:29:00.937Z,13.90
2018-07-14T06:31:29.936Z,14.33
2018-07-14T06:33:59.350Z,13.13
2018-07-14T06:36:28.286Z,17.60
2018-07-14T06:38:57.215Z,14.67
2018-07-14T06:41:26.190Z,13.50
2018-07-14T06:43:55.194Z,13.23
2018-07-14T06:46:24.174Z,13.37
2018-07-14T06:48:53.117Z,12.87
2018-07-14T06:51:22.019Z,13.93
2018-07-14T06:53:50.953Z,13.77
2018-07-14T06:56:19.873Z,15.40
2018-07-14T06:58:49.068Z,15.93
2018-07-14T07:01:18.011Z,14.87
2018-07-14T07:03:47.058Z,16.70
2018-07-14T07:06:16.019Z,13.27
2018-07-14T07:08:44.972Z,14.53
2018-07-14T07:11:14.076Z,14.47
2018-07-14T07:13:43.111Z,13.87
2018-07-14T07:16:11.996Z,20.63
2018-07-14T07:18:40.936Z,14.33
2018-07-14T07:21:09.947Z,13.60
2018-07-14T07:23:38.881Z,13.40
2018-07-14T07:26:07.840Z,12.77
2018-07-14T07:28:36.753Z,13.27
2018-07-14T07:31:05.716Z,13.57
2018-07-14T07:33:34.640Z,13.13
2018-07-14T07:36:03.651Z,15.23
2018-07-14T07:38:32.601Z,15.40
2018-07-14T07:41:01.506Z,13.87
2018-07-14T07:43:30.471Z,12.53
2018-07-14T07:45:59.450Z,13.03
2018-07-14T07:48:28.508Z,13.77
2018-07-14T07:50:57.511Z,12.27
2018-07-14T07:53:26.527Z,11.60
2018-07-14T07:55:55.460Z,13.30
2018-07-14T07:58:24.371Z,11.63
2018-07-14T08:00:53.278Z,13.27
2018-07-14T08:03:22.212Z,11.90
2018-07-14T08:05:51.166Z,11.73
2018-07-14T08:08:20.165Z,9.70
2018-07-14T08:10:49.102Z,10.17
2018-07-14T08:13:18.007Z,11.53
2018-07-14T08:15:46.912Z,13.33
2018-07-14T08:18:15.836Z,11.47
2018-07-14T08:20:44.760Z,12.03
2018-07-14T08:23:13.694Z,11.00
2018-07-14T08:25:42.596Z,9.68
2018-07-14T08:28:11.548Z,10.75
2018-07-14T08:30:40.464Z,11.18
2018-07-14T08:33:09.359Z,9.98
2018-07-14T08:35:38.300Z,11.80
2018-07-14T08:38:07.287Z,11.20
2018-07-14T08:40:36.193Z,10.48
2018-07-14T08:43:05.167Z,12.63
2018-07-14T08:45:34.162Z,9.75
2018-07-14T08:48:03.112Z,12.13
2018-07-14T08:50:32.081Z,9.97
2018-07-14T08:53:00.938Z,11.07
2018-07-14T08:55:29.831Z,11.50
2018-07-14T08:57:58.796Z,11.33
2018-07-14T09:00:27.744Z,10.20
2018-07-14T09:02:56.706Z,10.33
2018-07-14T09:05:25.756Z,11.30
2018-07-14T09:07:54.767Z,10.80
2018-07-14T09:10:23.832Z,10.82
2018-07-14T09:12:52.785Z,9.55
2018-07-14T09:15:21.724Z,10.25
2018-07-14T09:17:50.665Z,12.78
2018-07-14T09:20:19.609Z,8.83
2018-07-14T09:22:48.548Z,8.83
2018-07-14T09:25:17.485Z,8.85
2018-07-14T09:27:46.425Z,10.28
2018-07-14T09:30:15.401Z,9.53
2018-07-14T09:32:44.454Z,7.90
2018-07-14T09:35:13.354Z,14.33
2018-07-14T09:37:42.239Z,9.40
2018-07-14T09:40:11.186Z,8.70
2018-07-14T09:42:40.124Z,8.83
2018-07-14T09:45:09.075Z,8.78
2018-07-14T09:47:38.048Z,7.40
2018-07-14T09:50:06.987Z,10.75
2018-07-14T09:52:35.926Z,7.37
2018-07-14T09:55:05.015Z,10.05
2018-07-14T09:57:34.026Z,9.60
2018-07-14T10:00:03.010Z,8.43
2018-07-14T10:02:31.989Z,8.03
2018-07-14T10:05:00.933Z,7.62
2018-07-14T10:07:29.913Z,7.03
2018-07-14T10:09:58.972Z,8.55
2018-07-14T10:12:27.903Z,9.30
2018-07-14T10:14:56.966Z,7.78
2018-07-14T10:17:25.974Z,9.75
2018-07-14T10:19:54.908Z,7.92
2018-07-14T10:22:23.956Z,7.97
2018-07-14T10:24:52.837Z,7.37
2018-07-14T10:27:21.884Z,8.58
2018-07-14T10:29:51.004Z,6.75
2018-07-14T10:32:19.949Z,7.25
2018-07-14T10:34:48.914Z,6.67
2018-07-14T10:37:17.952Z,6.47
2018-07-14T10:39:46.931Z,12.90
2018-07-14T10:42:15.997Z,5.87
2018-07-14T10:44:44.836Z,8.28
2018-07-14T10:47:13.780Z,5.62
2018-07-14T10:49:42.712Z,6.85
2018-07-14T10:52:11.696Z,7.22
2018-07-14T10:54:40.634Z,7.55
2018-07-14T10:57:09.558Z,7.58
2018-07-14T10:59:39.488Z,6.40
2018-07-14T11:02:08.416Z,10.00
2018-07-14T11:04:37.341Z,7.03
2018-07-14T11:07:06.250Z,7.30
2018-07-14T11:09:35.195Z,6.22
2018-07-14T11:12:04.283Z,9.08
2018-07-14T11:14:33.213Z,6.37
2018-07-14T11:17:02.151Z,5.55
2018-07-14T11:19:31.299Z,5.80
2018-07-14T11:22:00.361Z,6.17
2018-07-14T11:24:31.584Z,6.25
2018-07-14T11:27:00.626Z,6.42
2018-07-14T11:29:29.673Z,6.20
2018-07-14T11:31:58.818Z,5.40
2018-07-14T11:34:41.274Z,6.72
2018-07-14T11:37:27.027Z,8.00
2018-07-14T11:40:01.847Z,6.22
2018-07-14T11:42:42.199Z,5.67
2018-07-14T11:45:27.830Z,6.28
2018-07-14T11:48:15.470Z,5.95
2018-07-14T11:50:55.002Z,5.67
2018-07-14T11:56:39.569Z,5.20
2018-07-14T11:59:43.122Z,5.92
2018-07-14T12:04:06.093Z,4.12
2018-07-14T12:11:33.754Z,5.22
2018-07-14T12:20:22.123Z,5.72
2018-07-14T12:29:55.886Z,5.17
2018-07-14T12:32:44.888Z,4.78
2018-07-14T12:47:43.490Z,4.50
2018-07-14T12:50:51.980Z,4.97
2018-07-14T12:56:53.044Z,4.28
2018-07-14T12:59:37.977Z,5.72
2018-07-14T13:02:25.671Z,4.05
2018-07-14T13:14:37.083Z,3.87
2018-07-14T13:17:06.319Z,5.90
2018-07-14T13:19:35.266Z,4.30
2018-07-14T13:22:04.325Z,5.17
2018-07-14T13:24:33.346Z,4.47
2018-07-14T13:27:02.337Z,4.53
2018-07-14T14:46:28.093Z,3.23
2018-07-14T14:49:15.543Z,2.80
2018-07-14T14:57:55.727Z,6.53
2018-07-14T15:00:27.963Z,2.17
2018-07-14T15:03:17.927Z,4.97
2018-07-14T15:06:09.037Z,2.87
2018-07-14T15:09:30.978Z,4.40
2018-07-14T15:12:20.617Z,2.63
2018-07-14T15:18:01.058Z,2.37
2018-07-14T15:23:30.697Z,2.37
2018-07-14T15:26:09.169Z,2.77
2018-07-14T15:28:48.110Z,2.20
2018-07-14T15:31:27.254Z,2.67
2018-07-14T15:34:07.703Z,2.53
2018-07-14T15:36:54.323Z,2.57
2018-07-14T15:39:30.714Z,2.33
2018-07-14T15:42:06.636Z,2.40
2018-07-14T15:44:48.503Z,3.00
2018-07-14T15:47:24.892Z,3.07
2018-07-14T15:50:02.836Z,2.50
2018-07-14T15:52:40.428Z,2.07
2018-07-14T15:55:11.988Z,2.10
2018-07-14T15:57:46.487Z,2.07
2018-07-14T16:00:16.974Z,2.90
2018-07-14T16:02:50.479Z,3.20
2018-07-14T16:05:22.551Z,2.63
2018-07-14T16:07:55.093Z,2.73
2018-07-14T16:10:24.368Z,2.73
2018-07-14T16:12:54.619Z,2.77
2018-07-14T16:15:24.084Z,5.63
2018-07-14T16:17:53.079Z,3.20
2018-07-14T16:20:22.091Z,2.27
2018-07-14T16:22:51.192Z,2.73
2018-07-14T16:25:20.400Z,3.53
2018-07-14T16:27:49.424Z,3.20
2018-07-14T16:30:18.794Z,2.60
2018-07-14T16:32:48.058Z,2.87
2018-07-14T16:35:17.240Z,3.63
2018-07-14T16:37:46.471Z,9.77
2018-07-14T16:40:15.616Z,4.50
2018-07-14T16:42:44.715Z,3.73
2018-07-14T16:45:13.797Z,3.07
2018-07-14T16:47:42.877Z,3.37
2018-07-14T16:50:12.012Z,3.90
2018-07-14T16:52:41.530Z,4.23
2018-07-14T16:55:10.739Z,3.20
2018-07-14T16:57:39.952Z,2.87
2018-07-14T17:00:08.951Z,3.43
2018-07-14T17:02:38.118Z,5.27
2018-07-14T17:05:07.254Z,5.00
2018-07-14T17:07:36.375Z,5.00
2018-07-14T17:10:05.513Z,4.00
2018-07-14T17:12:34.621Z,3.73
2018-07-14T17:15:03.681Z,2.90
2018-07-14T17:17:32.984Z,4.10
2018-07-14T17:20:02.155Z,3.53
2018-07-14T17:22:31.234Z,3.70
2018-07-14T17:25:00.441Z,3.20
2018-07-14T17:27:29.603Z,2.53
2018-07-14T17:29:58.737Z,3.00
2018-07-14T17:32:27.819Z,2.97
2018-07-14T17:34:57.016Z,3.10
2018-07-14T17:37:26.179Z,11.10
2018-07-14T17:39:55.321Z,5.23
2018-07-14T17:42:24.973Z,14.57
2018-07-14T17:45:11.391Z,11.83
2018-07-14T17:47:41.633Z,10.50
2018-07-14T17:50:10.665Z,5.93
2018-07-14T17:52:39.725Z,13.37
2018-07-14T17:55:08.805Z,18.87
2018-07-14T17:57:38.417Z,11.30
2018-07-14T18:00:07.419Z,26.83
2018-07-14T18:02:36.503Z,37.70
2018-07-14T18:05:05.564Z,110.23
2018-07-14T18:07:35.635Z,24.77
2018-07-14T18:10:04.729Z,29.10
2018-07-14T18:12:33.819Z,16.40
2018-07-14T18:15:02.856Z,13.67
2018-07-14T18:17:31.953Z,9.07
2018-07-14T18:20:01.002Z,10.87
2018-07-14T18:22:30.092Z,7.43
2018-07-14T18:24:59.136Z,22.67
2018-07-14T18:27:28.164Z,21.37
2018-07-14T18:29:57.337Z,28.67
2018-07-14T18:32:26.427Z,48.43
2018-07-14T18:34:55.484Z,33.53
2018-07-14T18:37:24.588Z,28.73
2018-07-14T18:39:53.640Z,24.23
2018-07-14T18:42:22.830Z,11.10
2018-07-14T18:44:51.988Z,5.83
2018-07-14T18:47:21.133Z,6.90
2018-07-14T18:49:50.174Z,6.57
2018-07-14T18:52:19.388Z,11.03
2018-07-14T18:54:48.252Z,9.63
2018-07-14T18:57:17.269Z,8.97
2018-07-14T18:59:46.283Z,7.33
2018-07-14T19:02:15.761Z,7.37
2018-07-14T19:04:44.749Z,6.83
2018-07-14T19:07:13.766Z,6.60
2018-07-14T19:09:42.836Z,6.40
2018-07-14T19:12:11.894Z,6.00
2018-07-14T19:14:41.266Z,4.77
2018-07-14T19:17:11.769Z,6.43
2018-07-14T19:19:41.146Z,4.50
2018-07-14T19:22:12.283Z,6.10
2018-07-14T19:24:42.090Z,10.20
2018-07-14T19:27:15.330Z,4.80
2018-07-14T19:29:45.892Z,3.93
2018-07-14T19:32:16.060Z,4.00
2018-07-14T19:34:55.233Z,5.53
2018-07-14T19:37:29.042Z,4.27
2018-07-14T19:49:35.073Z,5.83
2018-07-14T19:52:05.503Z,6.33
2018-07-14T19:54:35.546Z,6.03
2018-07-14T19:57:28.226Z,7.27
2018-07-14T20:02:39.775Z,8.57
2018-07-14T20:05:14.917Z,5.77
2018-07-14T20:10:37.603Z,7.43
2018-07-14T20:13:19.309Z,16.27
2018-07-14T20:16:03.912Z,8.13
2018-07-14T20:18:44.114Z,5.17
2018-07-14T20:21:21.181Z,8.73
2018-07-14T20:23:51.372Z,6.60
2018-07-14T20:26:24.223Z,5.60
2018-07-14T20:32:53.634Z,8.47
2018-07-14T20:41:44.410Z,5.43
2018-07-14T20:44:16.838Z,5.67
2018-07-14T20:46:47.268Z,5.23
2018-07-14T20:49:17.504Z,7.20
2018-07-14T20:51:49.467Z,7.50
2018-07-14T20:54:22.920Z,7.67
2018-07-14T20:56:52.521Z,5.43
2018-07-14T20:59:21.872Z,4.90
2018-07-14T22:23:50.477Z,5.47
2018-07-14T22:26:19.589Z,5.73
2018-07-14T22:28:48.628Z,6.83
2018-07-14T22:31:17.795Z,6.00
2018-07-14T22:33:46.844Z,6.00
2018-07-14T22:36:16.045Z,5.50
2018-07-14T22:38:45.286Z,6.07
2018-07-14T22:41:14.341Z,7.30
2018-07-14T22:43:43.536Z,6.23
2018-07-14T22:46:12.602Z,6.03
2018-07-14T22:48:41.700Z,6.23
2018-07-14T22:51:10.751Z,6.13
2018-07-14T22:53:39.970Z,5.80
2018-07-14T22:56:09.070Z,8.40
2018-07-14T22:58:38.083Z,5.97
2018-07-14T23:01:07.339Z,5.50
2018-07-14T23:03:36.411Z,5.67
2018-07-14T23:06:05.547Z,5.57
2018-07-14T23:08:34.604Z,8.47
2018-07-14T23:11:03.602Z,7.23
2018-07-14T23:13:33.567Z,7.23
2018-07-14T23:16:03.233Z,6.00
2018-07-14T23:18:32.222Z,6.20
2018-07-14T23:21:01.220Z,6.63
2018-07-14T23:23:33.310Z,8.43
2018-07-14T23:26:18.566Z,6.30
2018-07-14T23:28:49.373Z,6.40
2018-07-14T23:31:48.092Z,6.90
2018-07-14T23:34:57.591Z,7.30
